createdAt,value
2023-05-18T00:01:22.609Z,1.23
2023-05-18T00:03:55.684Z,1.38
2023-05-18T00:06:25.939Z,1.63
2023-05-18T00:08:56.278Z,1.35
2023-05-18T00:11:26.388Z,1.10
2023-05-18T00:13:56.614Z,1.38
2023-05-18T00:16:26.830Z,1.40
2023-05-18T00:18:57.150Z,1.30
2023-05-18T00:21:30.853Z,1.70
2023-05-18T00:24:01.619Z,1.63
2023-05-18T00:26:31.798Z,1.30
2023-05-18T00:29:02.025Z,1.70
2023-05-18T00:31:36.704Z,0.90
2023-05-18T00:34:10.906Z,1.33
2023-05-18T00:36:41.643Z,1.42
2023-05-18T00:39:12.957Z,1.42
2023-05-18T00:41:43.198Z,1.48
2023-05-18T00:44:13.424Z,1.80
2023-05-18T00:46:44.462Z,1.10
2023-05-18T00:49:14.785Z,1.65
2023-05-18T00:51:46.132Z,1.08
2023-05-18T00:54:17.106Z,1.40
2023-05-18T00:56:48.576Z,1.40
2023-05-18T00:59:18.833Z,1.48
2023-05-18T01:01:49.258Z,1.63
2023-05-18T01:04:22.004Z,1.75
2023-05-18T01:06:56.899Z,1.60
2023-05-18T01:09:27.132Z,1.40
2023-05-18T01:12:05.988Z,1.50
2023-05-18T01:15:10.543Z,1.63
2023-05-18T01:18:05.179Z,1.75
2023-05-18T01:20:49.665Z,1.40
2023-05-18T01:24:01.208Z,1.40
2023-05-18T01:26:38.123Z,1.55
2023-05-18T01:29:11.658Z,1.58
2023-05-18T01:31:42.113Z,1.98
2023-05-18T01:34:12.360Z,2.10
2023-05-18T01:36:42.576Z,1.85
2023-05-18T01:39:13.162Z,1.75
2023-05-18T01:41:55.569Z,2.00
2023-05-18T01:44:33.081Z,2.03
2023-05-18T01:47:13.609Z,2.20
2023-05-18T01:49:53.863Z,1.67
2023-05-18T01:52:33.623Z,1.38
2023-05-18T01:55:05.420Z,2.00
2023-05-18T01:57:38.181Z,1.52
2023-05-18T02:00:10.410Z,1.70
2023-05-18T02:02:41.586Z,1.40
2023-05-18T02:05:12.656Z,2.20
2023-05-18T02:07:47.672Z,1.80
2023-05-18T02:10:18.086Z,2.10
2023-05-18T02:12:52.944Z,2.22
2023-05-18T02:15:23.291Z,2.30
2023-05-18T02:17:58.562Z,2.53
2023-05-18T02:20:32.807Z,2.50
2023-05-18T02:23:03.105Z,3.03
2023-05-18T02:25:33.344Z,2.85
2023-05-18T02:28:03.654Z,2.70
2023-05-18T02:30:34.665Z,2.88
2023-05-18T02:33:04.838Z,2.50
2023-05-18T02:35:36.129Z,2.40
2023-05-18T02:38:06.447Z,2.55
2023-05-18T02:40:36.857Z,3.05
2023-05-18T02:43:07.101Z,2.45
2023-05-18T02:45:37.347Z,2.70
2023-05-18T02:48:07.592Z,2.17
2023-05-18T02:50:37.817Z,2.30
2023-05-18T02:53:08.010Z,2.33
2023-05-18T02:55:38.699Z,3.15
2023-05-18T02:58:08.882Z,3.00
2023-05-18T03:00:39.090Z,3.35
2023-05-18T03:03:16.076Z,2.83
2023-05-18T03:05:46.534Z,3.28
2023-05-18T03:08:16.767Z,3.63
2023-05-18T03:10:46.991Z,4.18
2023-05-18T03:13:17.191Z,4.00
2023-05-18T03:15:48.277Z,4.20
2023-05-18T03:18:21.692Z,3.85
2023-05-18T03:20:52.957Z,4.18
2023-05-18T03:23:23.249Z,4.03
2023-05-18T03:25:54.603Z,3.28
2023-05-18T03:28:24.770Z,3.42
2023-05-18T03:30:55.376Z,2.90
2023-05-18T03:33:26.762Z,2.95
2023-05-18T03:35:57.450Z,4.38
2023-05-18T03:38:27.573Z,4.25
2023-05-18T03:40:57.825Z,4.72
2023-05-18T03:43:29.729Z,5.72
2023-05-18T03:45:59.967Z,4.75
2023-05-18T03:48:30.446Z,4.45
2023-05-18T03:51:00.892Z,3.00
2023-05-18T03:53:31.196Z,3.25
2023-05-18T03:56:01.472Z,3.20
2023-05-18T03:58:31.730Z,3.20
2023-05-18T04:01:02.545Z,3.20
2023-05-18T04:03:34.961Z,3.20
2023-05-18T04:06:06.668Z,3.55
2023-05-18T04:08:37.010Z,3.75
2023-05-18T04:11:07.200Z,3.70
2023-05-18T04:13:38.677Z,4.32
2023-05-18T04:16:13.450Z,5.30
2023-05-18T04:18:44.550Z,3.47
2023-05-18T04:21:16.284Z,3.20
2023-05-18T04:23:47.453Z,3.42
2023-05-18T04:26:20.296Z,2.85
2023-05-18T04:28:51.775Z,1.55
2023-05-18T04:31:22.071Z,1.80
2023-05-18T04:33:52.563Z,1.90
2023-05-18T04:36:25.969Z,1.63
2023-05-18T04:38:59.267Z,1.50
2023-05-18T04:41:30.274Z,1.40
2023-05-18T04:44:04.313Z,1.95
2023-05-18T04:46:35.077Z,1.80
2023-05-18T04:49:05.284Z,1.92
2023-05-18T04:51:37.049Z,2.00
2023-05-18T04:54:10.337Z,2.40
2023-05-18T04:56:41.000Z,2.60
2023-05-18T04:59:11.398Z,2.60
2023-05-18T05:01:41.572Z,1.98
2023-05-18T05:04:12.499Z,2.40
2023-05-18T05:06:42.668Z,2.70
2023-05-18T05:09:15.544Z,1.75
2023-05-18T05:11:48.617Z,2.00
2023-05-18T05:14:18.823Z,1.52
2023-05-18T05:16:48.915Z,1.35
2023-05-18T05:19:19.124Z,1.20
2023-05-18T05:21:49.342Z,1.30
2023-05-18T05:24:25.677Z,1.20
2023-05-18T05:26:56.081Z,1.05
2023-05-18T05:29:27.034Z,1.23
2023-05-18T05:31:57.304Z,1.98
2023-05-18T05:34:27.632Z,1.73
2023-05-18T05:36:57.794Z,1.20
2023-05-18T05:39:27.897Z,1.50
2023-05-18T05:41:58.046Z,1.20
2023-05-18T05:44:28.255Z,1.13
2023-05-18T05:46:58.509Z,1.63
2023-05-18T05:49:29.012Z,0.93
2023-05-18T05:51:59.264Z,1.10
2023-05-18T05:54:29.474Z,1.55
2023-05-18T05:56:59.680Z,1.23
2023-05-18T05:59:30.404Z,1.02
2023-05-18T06:02:00.636Z,0.90
2023-05-18T06:04:31.023Z,1.10
2023-05-18T06:07:02.490Z,1.80
2023-05-18T06:09:32.787Z,1.38
2023-05-18T06:12:02.992Z,1.30
2023-05-18T06:14:33.353Z,1.05
2023-05-18T06:17:03.599Z,1.40
2023-05-18T06:19:34.053Z,0.70
2023-05-18T06:22:04.483Z,0.65
2023-05-18T06:24:34.813Z,0.88
2023-05-18T06:27:05.186Z,0.70
2023-05-18T06:29:35.363Z,0.70
2023-05-18T06:32:06.308Z,0.70
2023-05-18T06:34:37.895Z,0.77
2023-05-18T06:37:08.107Z,1.30
2023-05-18T06:39:40.390Z,0.70
2023-05-18T06:42:10.528Z,0.65
2023-05-18T06:44:40.660Z,0.65
2023-05-18T06:47:11.027Z,0.93
2023-05-18T06:49:41.240Z,0.75
2023-05-18T06:52:11.453Z,0.70
2023-05-18T06:54:41.772Z,0.68
2023-05-18T06:57:12.518Z,0.70
2023-05-18T06:59:42.672Z,0.40
2023-05-18T07:02:12.852Z,0.90
2023-05-18T07:04:43.030Z,0.30
2023-05-18T07:07:13.499Z,0.57
2023-05-18T07:09:45.792Z,0.32
2023-05-18T07:12:15.979Z,0.52
2023-05-18T07:14:46.349Z,0.40
2023-05-18T07:17:16.508Z,0.38
2023-05-18T07:19:46.737Z,0.50
2023-05-18T07:22:16.987Z,1.02
2023-05-18T07:24:47.257Z,0.50
2023-05-18T07:27:17.381Z,0.30
2023-05-18T07:29:47.517Z,0.40
2023-05-18T07:32:17.646Z,0.47
2023-05-18T07:34:47.889Z,0.40
2023-05-18T07:37:18.186Z,0.30
2023-05-18T07:39:48.374Z,0.30
2023-05-18T07:42:18.578Z,0.82
2023-05-18T07:44:48.775Z,0.30
2023-05-18T07:47:21.416Z,0.50
2023-05-18T07:49:51.710Z,0.30
2023-05-18T07:52:21.980Z,0.32
2023-05-18T07:54:54.766Z,0.70
2023-05-18T07:57:25.557Z,0.30
2023-05-18T07:59:55.663Z,0.30
2023-05-18T08:02:26.148Z,0.40
2023-05-18T08:04:56.671Z,0.60
2023-05-18T08:07:30.175Z,0.40
2023-05-18T08:10:00.808Z,0.50
2023-05-18T08:12:31.217Z,0.35
2023-05-18T08:15:01.592Z,0.28
2023-05-18T08:17:31.958Z,0.20
2023-05-18T08:20:08.888Z,0.40
2023-05-18T08:22:39.174Z,0.40
2023-05-18T08:25:10.576Z,0.55
2023-05-18T08:27:40.866Z,0.50
2023-05-18T08:30:12.364Z,0.20
2023-05-18T08:32:42.625Z,0.30
2023-05-18T08:35:12.738Z,0.40
2023-05-18T08:37:42.950Z,0.43
2023-05-18T08:40:13.546Z,0.32
2023-05-18T08:42:50.547Z,0.60
2023-05-18T08:45:33.261Z,0.40
2023-05-18T08:48:05.154Z,0.32
2023-05-18T08:50:38.105Z,0.50
2023-05-18T08:53:10.791Z,0.30
2023-05-18T08:55:42.642Z,0.32
2023-05-18T08:58:17.750Z,0.30
2023-05-18T09:00:54.778Z,0.40
2023-05-18T09:03:25.374Z,0.50
2023-05-18T09:05:57.671Z,0.40
2023-05-18T09:08:28.706Z,0.40
2023-05-18T09:11:01.857Z,0.50
2023-05-18T09:13:32.337Z,0.68
2023-05-18T09:16:02.630Z,0.52
2023-05-18T09:18:32.923Z,0.63
2023-05-18T09:21:03.289Z,0.50
2023-05-18T09:23:33.992Z,0.40
2023-05-18T09:26:04.996Z,0.30
2023-05-18T09:28:41.712Z,0.40
2023-05-18T09:31:18.627Z,0.65
2023-05-18T09:33:50.663Z,0.98
2023-05-18T09:36:27.304Z,0.30
2023-05-18T09:38:58.782Z,0.40
2023-05-18T09:41:29.036Z,0.30
2023-05-18T09:43:59.824Z,0.68
2023-05-18T09:46:33.065Z,0.38
2023-05-18T09:49:05.519Z,0.50
2023-05-18T09:51:39.935Z,0.40
2023-05-18T09:54:10.569Z,0.40
2023-05-18T09:56:40.814Z,0.50
2023-05-18T09:59:15.489Z,0.68
2023-05-18T10:02:02.514Z,0.40
2023-05-18T10:04:43.100Z,0.30
2023-05-18T10:07:15.542Z,0.30
2023-05-18T10:09:46.823Z,0.40
2023-05-18T10:12:20.012Z,0.30
2023-05-18T10:14:50.432Z,0.20
2023-05-18T10:17:26.166Z,0.40
2023-05-18T10:19:58.463Z,0.17
2023-05-18T10:22:29.076Z,0.20
2023-05-18T10:25:01.573Z,0.30
2023-05-18T10:27:35.213Z,0.50
2023-05-18T10:30:08.452Z,0.40
2023-05-18T10:32:39.687Z,0.25
2023-05-18T10:35:11.829Z,0.50
2023-05-18T10:37:49.228Z,0.40
2023-05-18T10:40:23.152Z,0.70
2023-05-18T10:42:56.840Z,0.30
2023-05-18T10:45:27.872Z,0.30
2023-05-18T10:48:00.473Z,0.30
2023-05-18T10:50:32.501Z,0.30
2023-05-18T10:53:06.307Z,0.28
2023-05-18T10:55:36.583Z,0.30
2023-05-18T10:58:14.305Z,0.38
2023-05-18T11:00:49.992Z,0.30
2023-05-18T11:03:20.909Z,0.47
2023-05-18T11:05:52.680Z,0.20
2023-05-18T11:08:27.358Z,0.30
2023-05-18T11:11:10.213Z,0.40
2023-05-18T11:13:46.434Z,0.30
2023-05-18T11:18:52.020Z,0.25
2023-05-18T11:21:25.436Z,0.20
2023-05-18T11:24:14.737Z,0.65
2023-05-18T11:26:53.833Z,0.40
2023-05-18T11:29:31.023Z,0.35
2023-05-18T11:32:02.571Z,0.80
2023-05-18T11:34:40.015Z,0.35
2023-05-18T11:37:11.197Z,0.20
2023-05-18T11:39:51.536Z,0.35
2023-05-18T11:42:34.484Z,0.20
2023-05-18T11:45:14.310Z,0.20
2023-05-18T11:47:44.637Z,0.20
2023-05-18T11:50:16.808Z,0.30
2023-05-18T11:52:52.729Z,0.32
2023-05-18T11:55:23.396Z,0.52
2023-05-18T11:57:54.067Z,0.20
2023-05-18T12:00:25.141Z,0.30
2023-05-18T12:02:57.468Z,0.05
2023-05-18T12:05:31.895Z,0.30
2023-05-18T12:08:02.626Z,0.30
2023-05-18T12:10:36.861Z,0.35
2023-05-18T12:13:08.112Z,0.38
2023-05-18T12:15:39.086Z,0.40
2023-05-18T12:18:09.788Z,0.30
2023-05-18T12:20:41.169Z,0.10
2023-05-18T12:23:11.395Z,0.43
2023-05-18T12:25:41.754Z,0.30
2023-05-18T12:28:12.009Z,0.45
2023-05-18T12:30:44.135Z,0.10
2023-05-18T12:33:14.855Z,0.20
2023-05-18T12:35:45.023Z,0.32
2023-05-18T12:38:17.699Z,0.20
2023-05-18T12:40:49.105Z,0.20
2023-05-18T12:43:19.303Z,0.30
2023-05-18T12:45:50.333Z,0.30
2023-05-18T12:48:22.494Z,0.20
2023-05-18T12:50:52.900Z,0.30
2023-05-18T12:53:24.295Z,0.30
2023-05-18T12:55:59.829Z,0.43
2023-05-18T12:58:30.032Z,0.30
2023-05-18T13:01:09.197Z,0.22
2023-05-18T13:03:41.107Z,0.43
2023-05-18T13:06:11.427Z,0.40
2023-05-18T13:08:41.615Z,0.20
2023-05-18T13:11:15.334Z,0.30
2023-05-18T13:14:03.838Z,0.50
2023-05-18T13:16:37.454Z,0.17
2023-05-18T13:19:10.139Z,0.40
2023-05-18T13:21:40.406Z,0.20
2023-05-18T13:24:10.537Z,0.30
2023-05-18T13:26:41.291Z,0.10
2023-05-18T13:29:11.588Z,0.20
2023-05-18T13:31:42.233Z,0.20
2023-05-18T13:34:12.348Z,0.40
2023-05-18T13:36:42.528Z,0.35
2023-05-18T13:39:13.507Z,0.47
2023-05-18T13:41:43.678Z,0.40
2023-05-18T13:44:16.245Z,0.22
2023-05-18T13:46:46.480Z,0.50
2023-05-18T13:49:16.684Z,0.40
2023-05-18T13:51:48.310Z,0.30
2023-05-18T13:54:18.442Z,0.30
2023-05-18T13:56:48.736Z,0.38
2023-05-18T13:59:19.942Z,0.30
2023-05-18T14:01:50.625Z,0.28
2023-05-18T14:04:20.896Z,0.20
2023-05-18T14:06:54.435Z,0.30
2023-05-18T14:09:28.507Z,0.47
2023-05-18T14:12:00.188Z,0.20
2023-05-18T14:14:30.407Z,0.50
2023-05-18T14:17:00.659Z,0.28
2023-05-18T14:19:31.133Z,0.22
2023-05-18T14:22:01.278Z,0.30
2023-05-18T14:24:31.531Z,0.35
2023-05-18T14:27:02.242Z,0.20
2023-05-18T14:29:35.902Z,0.20
2023-05-18T14:32:06.977Z,0.20
2023-05-18T14:34:37.195Z,0.40
2023-05-18T14:37:07.401Z,0.50
2023-05-18T14:39:38.079Z,0.63
2023-05-18T14:42:08.449Z,0.30
2023-05-18T14:44:38.829Z,0.20
2023-05-18T14:47:10.733Z,0.30
2023-05-18T14:49:41.129Z,0.40
2023-05-18T14:52:11.496Z,0.40
2023-05-18T14:54:42.507Z,0.30
2023-05-18T14:57:13.106Z,0.35
2023-05-18T14:59:43.734Z,0.40
2023-05-18T15:02:14.137Z,0.25
2023-05-18T15:04:44.534Z,0.45
2023-05-18T15:07:14.759Z,0.52
2023-05-18T15:09:44.954Z,0.50
2023-05-18T15:12:17.196Z,0.30
2023-05-18T15:14:47.403Z,0.30
2023-05-18T15:17:18.275Z,0.30
2023-05-18T15:19:48.647Z,0.38
2023-05-18T15:22:18.852Z,0.22
2023-05-18T15:24:49.227Z,0.20
2023-05-18T15:27:19.441Z,0.40
2023-05-18T15:29:49.639Z,0.38
2023-05-18T15:32:19.931Z,0.30
2023-05-18T15:34:50.146Z,0.20
2023-05-18T15:37:20.756Z,0.40
2023-05-18T15:39:51.116Z,0.50
2023-05-18T15:42:21.562Z,0.35
2023-05-18T15:44:51.916Z,0.80
2023-05-18T15:47:22.719Z,0.60
2023-05-18T15:49:53.747Z,0.75
2023-05-18T15:52:24.979Z,0.60
2023-05-18T15:54:55.428Z,0.40
2023-05-18T15:57:26.062Z,0.60
2023-05-18T15:59:57.954Z,0.20
2023-05-18T16:02:28.192Z,0.30
2023-05-18T16:04:58.356Z,0.17
2023-05-18T16:07:28.998Z,0.47
2023-05-18T16:09:59.268Z,0.30
2023-05-18T16:12:29.527Z,0.38
2023-05-18T16:14:59.644Z,0.50
2023-05-18T16:17:29.774Z,1.30
2023-05-18T16:20:08.593Z,1.38
2023-05-18T16:22:41.050Z,0.73
2023-05-18T16:25:11.624Z,1.00
2023-05-18T16:27:41.834Z,1.05
2023-05-18T16:30:12.516Z,0.70
2023-05-18T16:32:50.619Z,0.30
2023-05-18T16:35:20.916Z,0.45
2023-05-18T16:37:51.174Z,1.00
2023-05-18T16:40:21.363Z,0.82
2023-05-18T16:42:51.644Z,0.80
2023-05-18T16:45:21.856Z,0.60
2023-05-18T16:47:52.111Z,0.40
2023-05-18T16:50:22.381Z,0.75
2023-05-18T16:52:52.619Z,0.70
2023-05-18T16:55:26.160Z,0.85
2023-05-18T16:57:56.400Z,1.13
2023-05-18T17:00:26.740Z,1.35
2023-05-18T17:02:57.397Z,0.80
2023-05-18T17:05:27.677Z,1.20
2023-05-18T17:07:57.796Z,1.30
2023-05-18T17:10:28.099Z,1.02
2023-05-18T17:13:00.056Z,0.90
2023-05-18T17:15:31.228Z,1.02
2023-05-18T17:18:01.642Z,1.00
2023-05-18T17:20:32.174Z,1.00
2023-05-18T17:23:02.553Z,1.23
2023-05-18T17:25:32.809Z,1.00
2023-05-18T17:28:03.042Z,1.27
2023-05-18T17:30:33.451Z,0.80
2023-05-18T17:33:04.033Z,1.30
2023-05-18T17:35:34.312Z,1.42
2023-05-18T17:38:04.551Z,1.10
2023-05-18T17:40:34.801Z,1.10
2023-05-18T17:43:05.058Z,0.90
2023-05-18T17:45:35.279Z,0.88
2023-05-18T17:48:05.894Z,0.68
2023-05-18T17:50:37.988Z,1.10
2023-05-18T17:53:08.215Z,0.80
2023-05-18T17:55:38.642Z,0.73
2023-05-18T17:58:08.783Z,1.13
2023-05-18T18:00:39.300Z,0.90
2023-05-18T18:03:10.932Z,1.15
2023-05-18T18:05:41.241Z,0.90
2023-05-18T18:08:11.616Z,0.80
2023-05-18T18:10:42.339Z,0.85
2023-05-18T18:13:12.529Z,0.90
2023-05-18T18:15:42.939Z,1.02
2023-05-18T18:18:13.448Z,1.10
2023-05-18T18:20:43.840Z,1.13
2023-05-18T18:23:14.439Z,1.13
2023-05-18T18:25:44.732Z,1.00
2023-05-18T18:28:15.428Z,1.60
2023-05-18T18:30:46.549Z,1.45
2023-05-18T18:33:16.730Z,1.88
2023-05-18T18:35:48.095Z,1.40
2023-05-18T18:38:18.484Z,1.30
2023-05-18T18:40:49.139Z,1.00
2023-05-18T18:43:19.415Z,1.00
2023-05-18T18:45:49.618Z,0.82
2023-05-18T18:48:22.716Z,0.60
2023-05-18T18:50:53.360Z,1.20
2023-05-18T18:53:25.085Z,1.38
2023-05-18T18:55:56.835Z,1.50
2023-05-18T18:58:27.155Z,1.60
2023-05-18T19:00:57.328Z,1.58
2023-05-18T19:03:27.687Z,1.63
2023-05-18T19:05:58.010Z,1.40
2023-05-18T19:08:29.373Z,1.77
2023-05-18T19:11:00.205Z,1.52
2023-05-18T19:13:30.432Z,1.40
2023-05-18T19:16:00.886Z,1.30
2023-05-18T19:18:31.191Z,1.52
2023-05-18T19:21:01.654Z,1.23
2023-05-18T19:23:31.971Z,1.00
2023-05-18T19:26:02.426Z,0.88
2023-05-18T19:28:32.698Z,0.60
2023-05-18T19:31:02.964Z,0.63
2023-05-18T19:33:33.174Z,0.68
2023-05-18T19:36:03.703Z,0.85
2023-05-18T19:38:33.922Z,1.08
2023-05-18T19:41:04.072Z,0.80
2023-05-18T19:43:34.295Z,0.70
2023-05-18T19:46:06.003Z,0.77
2023-05-18T19:48:36.417Z,0.60
2023-05-18T19:51:07.380Z,0.50
2023-05-18T19:53:37.525Z,0.68
2023-05-18T19:56:07.785Z,0.70
2023-05-18T19:58:38.307Z,0.70
2023-05-18T20:01:10.167Z,1.00
2023-05-18T20:03:43.179Z,0.70
2023-05-18T20:06:14.931Z,0.60
2023-05-18T20:08:45.387Z,0.50
2023-05-18T20:11:15.783Z,0.77
2023-05-18T20:13:46.637Z,0.70
2023-05-18T20:16:16.803Z,0.90
2023-05-18T20:18:47.424Z,0.80
2023-05-18T20:21:18.700Z,0.60
2023-05-18T20:23:48.913Z,0.70
2023-05-18T20:26:19.208Z,1.13
2023-05-18T20:28:49.898Z,1.70
2023-05-18T20:31:21.725Z,1.45
2023-05-18T20:33:57.047Z,1.55
2023-05-18T20:36:27.889Z,2.15
2023-05-18T20:38:59.139Z,2.47
2023-05-18T20:41:29.828Z,1.85
2023-05-18T20:44:02.195Z,2.30
2023-05-18T20:46:34.131Z,2.08
2023-05-18T20:49:05.718Z,1.83
2023-05-18T20:51:36.230Z,0.88
2023-05-18T20:54:06.486Z,1.25
2023-05-18T20:56:36.753Z,1.02
2023-05-18T20:59:06.936Z,1.00
2023-05-18T21:01:39.595Z,1.10
2023-05-18T21:04:12.900Z,0.70
2023-05-18T21:06:44.215Z,0.40
2023-05-18T21:09:16.136Z,0.47
2023-05-18T21:11:46.425Z,0.60
2023-05-18T21:14:16.670Z,0.50
2023-05-18T21:16:47.365Z,0.55
2023-05-18T21:19:17.643Z,0.50
2023-05-18T21:21:48.450Z,0.63
2023-05-18T21:24:18.598Z,0.70
2023-05-18T21:26:49.052Z,0.93
2023-05-18T21:29:19.419Z,1.00
2023-05-18T21:31:49.836Z,1.20
2023-05-18T21:34:20.236Z,0.82
2023-05-18T21:36:50.738Z,0.70
2023-05-18T21:39:21.064Z,0.70
2023-05-18T21:41:51.367Z,0.73
2023-05-18T21:44:21.496Z,0.73
2023-05-18T21:46:55.455Z,0.40
2023-05-18T21:49:25.681Z,0.40
2023-05-18T21:51:56.434Z,0.50
2023-05-18T21:54:26.655Z,0.30
2023-05-18T21:56:56.904Z,0.60
2023-05-18T21:59:27.329Z,0.57
2023-05-18T22:01:57.703Z,0.55
2023-05-18T22:04:27.960Z,0.45
2023-05-18T22:06:59.016Z,0.40
2023-05-18T22:09:29.331Z,0.40
2023-05-18T22:11:59.479Z,0.70
2023-05-18T22:14:31.298Z,0.50
2023-05-18T22:17:02.326Z,0.60
2023-05-18T22:19:32.627Z,0.50
2023-05-18T22:22:02.812Z,0.55
2023-05-18T22:24:33.053Z,0.50
2023-05-18T22:27:04.392Z,0.40
2023-05-18T22:29:34.666Z,0.65
2023-05-18T22:32:08.096Z,0.80
2023-05-18T22:34:39.020Z,0.90
2023-05-18T22:37:09.228Z,1.60
2023-05-18T22:39:39.389Z,1.10
2023-05-18T22:42:09.622Z,1.35
2023-05-18T22:44:39.917Z,1.23
2023-05-18T22:47:10.368Z,1.35
2023-05-18T22:49:41.364Z,1.50
2023-05-18T22:52:11.640Z,0.82
2023-05-18T22:54:42.004Z,1.10
2023-05-18T22:57:12.712Z,1.20
2023-05-18T22:59:42.913Z,1.00
2023-05-18T23:02:13.178Z,0.80
2023-05-18T23:04:44.019Z,1.10
2023-05-18T23:07:14.167Z,0.80
2023-05-18T23:09:44.321Z,0.80
2023-05-18T23:12:14.518Z,0.95
2023-05-18T23:14:45.046Z,0.70
2023-05-18T23:17:18.932Z,0.80
2023-05-18T23:19:50.473Z,0.98
2023-05-18T23:22:20.590Z,0.88
2023-05-18T23:24:50.878Z,0.70
2023-05-18T23:27:21.057Z,0.52
2023-05-18T23:29:53.129Z,0.70
2023-05-18T23:32:23.685Z,0.47
2023-05-18T23:34:56.411Z,0.40
2023-05-18T23:37:27.102Z,0.55
2023-05-18T23:40:01.180Z,0.40
2023-05-18T23:42:31.717Z,0.75
2023-05-18T23:45:02.151Z,0.63
2023-05-18T23:47:32.598Z,0.70
2023-05-18T23:50:03.305Z,0.40
2023-05-18T23:52:35.652Z,0.43
2023-05-18T23:55:10.449Z,0.40
2023-05-18T23:57:41.109Z,0.40
